Time;durP1;ratioP1;P1;durP2;ratioP2;P2;SDS_P1;SDS_P2;PMS_P1;PMS_P2;Temp;Humidity;BMP_temperature;BMP_pressure;BME280_temperature;BME280_humidity;BME280_pressure;Samples;Min_cycle;Max_cycle;Signal;HPM_P1;HPM_P2
2022/10/03 00:02:38;;;;;;;12.45;3.30;;;;;;;;;;4972568;28;93178;-69
2022/10/03 00:05:14;;;;;;;12.43;3.53;;;;;;;;;;4972356;28;93245;-68
2022/10/03 00:07:55;;;;;;;14.57;3.45;;;;;;;;;;4970846;28;94903;-68
2022/10/03 00:10:30;;;;;;;17.65;3.63;;;;;;;;;;4983500;28;92529;-67
2022/10/03 00:13:05;;;;;;;15.55;3.30;;;;;;;;;;4969975;28;92360;-68
2022/10/03 00:15:38;;;;;;;17.70;3.05;;;;;;;;;;4970440;28;93440;-67
2022/10/03 00:18:13;;;;;;;10.93;2.58;;;;;;;;;;4972944;28;96273;-67
2022/10/03 00:20:48;;;;;;;13.43;2.63;;;;;;;;;;4992912;28;95662;-69
2022/10/03 00:23:18;;;;;;;17.83;2.95;;;;;;;;;;4970964;28;92499;-67
2022/10/03 00:25:50;;;;;;;13.50;2.78;;;;;;;;;;4976083;28;93199;-68
2022/10/03 00:28:35;;;;;;;10.82;2.65;;;;;;;;;;4974193;28;93469;-68
2022/10/03 00:31:08;;;;;;;15.35;2.85;;;;;;;;;;4964366;28;92961;-68
2022/10/03 00:33:50;;;;;;;9.95;2.65;;;;;;;;;;4983947;28;93167;-68
2022/10/03 00:36:24;;;;;;;25.55;3.13;;;;;;;;;;4979770;28;92717;-68
2022/10/03 00:39:01;;;;;;;11.27;2.70;;;;;;;;;;4978585;28;92498;-67
2022/10/03 00:41:33;;;;;;;10.70;2.97;;;;;;;;;;4970608;28;93195;-67
2022/10/03 00:43:59;;;;;;;10.60;2.53;;;;;;;;;;4983976;28;96879;-68
2022/10/03 00:46:39;;;;;;;9.07;2.70;;;;;;;;;;4972702;28;95465;-67
2022/10/03 00:49:05;;;;;;;9.83;2.63;;;;;;;;;;4972783;28;94391;-67
2022/10/03 00:51:50;;;;;;;8.90;2.30;;;;;;;;;;4990593;28;92443;-67
2022/10/03 00:54:28;;;;;;;6.15;2.22;;;;;;;;;;4972625;28;93648;-68
2022/10/03 00:57:21;;;;;;;15.15;2.60;;;;;;;;;;4972339;28;93413;-67
2022/10/03 01:00:00;;;;;;;11.00;2.60;;;;;;;;;;4971581;28;92455;-67
2022/10/03 01:02:33;;;;;;;13.63;2.40;;;;;;;;;;4977913;28;93364;-68
2022/10/03 01:05:06;;;;;;;9.65;2.33;;;;;;;;;;4972845;28;94415;-69
2022/10/03 01:07:55;;;;;;;9.52;2.47;;;;;;;;;;4981596;28;92548;-67
2022/10/03 01:10:26;;;;;;;18.65;2.50;;;;;;;;;;4956880;28;95866;-67
2022/10/03 01:12:56;;;;;;;14.85;2.63;;;;;;;;;;4969379;28;92604;-68
2022/10/03 01:15:27;;;;;;;8.50;2.35;;;;;;;;;;4968593;28;93167;-67
2022/10/03 01:17:59;;;;;;;10.68;2.55;;;;;;;;;;4972226;28;93483;-68
2022/10/03 01:20:34;;;;;;;11.45;3.00;;;;;;;;;;4964969;28;92655;-68
2022/10/03 01:23:04;;;;;;;11.55;2.22;;;;;;;;;;4969114;28;93125;-67
2022/10/03 01:25:39;;;;;;;10.63;2.80;;;;;;;;;;4970583;28;93474;-68
2022/10/03 01:31:10;;;;;;;7.00;2.10;;;;;;;;;;4968146;28;93877;-68
2022/10/03 01:33:52;;;;;;;10.48;2.67;;;;;;;;;;4972565;28;92619;-68
2022/10/03 01:36:24;;;;;;;10.02;2.15;;;;;;;;;;4967417;28;96580;-68
2022/10/03 01:38:53;;;;;;;8.18;2.40;;;;;;;;;;4972660;28;94636;-68
2022/10/03 01:41:26;;;;;;;8.32;2.42;;;;;;;;;;4968863;28;92544;-67
2022/10/03 01:43:54;;;;;;;11.00;2.45;;;;;;;;;;4973342;28;94484;-67
2022/10/03 01:46:20;;;;;;;8.50;2.80;;;;;;;;;;4971960;28;94515;-67
2022/10/03 01:48:52;;;;;;;11.32;2.00;;;;;;;;;;4964673;28;92963;-68
2022/10/03 01:51:38;;;;;;;7.47;2.30;;;;;;;;;;4983251;28;93203;-67
2022/10/03 01:54:13;;;;;;;11.27;3.20;;;;;;;;;;4977770;28;92965;-67
2022/10/03 01:56:54;;;;;;;12.23;2.63;;;;;;;;;;4981301;28;92906;-67
2022/10/03 01:59:38;;;;;;;9.85;2.38;;;;;;;;;;4972716;28;93448;-67
2022/10/03 02:02:25;;;;;;;11.02;2.03;;;;;;;;;;4972752;28;94876;-68
2022/10/03 02:04:51;;;;;;;8.75;2.40;;;;;;;;;;4984679;28;96621;-68
2022/10/03 02:07:40;;;;;;;7.97;2.08;;;;;;;;;;4972876;28;93974;-67
2022/10/03 02:10:29;;;;;;;12.52;3.22;;;;;;;;;;4975762;28;92505;-68
2022/10/03 02:13:10;;;;;;;7.18;2.00;;;;;;;;;;4992630;28;93496;-68
2022/10/03 02:15:48;;;;;;;11.95;2.10;;;;;;;;;;4981109;28;93456;-67
2022/10/03 02:18:20;;;;;;;22.40;2.17;;;;;;;;;;4990361;28;93272;-68
2022/10/03 02:20:47;;;;;;;11.38;2.22;;;;;;;;;;4972149;28;93785;-68
2022/10/03 02:23:22;;;;;;;8.80;2.33;;;;;;;;;;4985566;28;92436;-67
2022/10/03 02:25:52;;;;;;;8.40;2.38;;;;;;;;;;4976676;28;94200;-67
2022/10/03 02:28:37;;;;;;;5.28;1.90;;;;;;;;;;4979540;28;95791;-67
2022/10/03 02:31:03;;;;;;;8.82;2.10;;;;;;;;;;4975483;28;92701;-67
2022/10/03 02:33:48;;;;;;;10.15;2.20;;;;;;;;;;4980947;28;93169;-67
2022/10/03 02:36:27;;;;;;;9.93;2.15;;;;;;;;;;4985010;28;93750;-67
2022/10/03 02:38:59;;;;;;;8.52;2.35;;;;;;;;;;4979766;28;92694;-67
2022/10/03 02:41:43;;;;;;;6.47;2.00;;;;;;;;;;4959626;28;93332;-67
2022/10/03 02:44:25;;;;;;;6.72;2.00;;;;;;;;;;4981813;28;92602;-67
2022/10/03 02:47:15;;;;;;;7.15;2.55;;;;;;;;;;4978193;28;93957;-68
2022/10/03 02:49:42;;;;;;;5.70;1.98;;;;;;;;;;4977149;28;93450;-67
2022/10/03 02:52:11;;;;;;;11.68;2.92;;;;;;;;;;4976945;28;92430;-68
2022/10/03 02:55:01;;;;;;;10.40;2.47;;;;;;;;;;4967271;28;95644;-68
2022/10/03 02:57:27;;;;;;;10.00;3.20;;;;;;;;;;4969959;28;93446;-68
2022/10/03 02:59:56;;;;;;;11.30;3.63;;;;;;;;;;4967829;28;93984;-68
2022/10/03 03:02:28;;;;;;;7.00;2.65;;;;;;;;;;4973110;28;94231;-68
2022/10/03 03:05:03;;;;;;;7.60;2.53;;;;;;;;;;4972252;28;92594;-68
2022/10/03 03:07:35;;;;;;;9.75;3.13;;;;;;;;;;4970202;28;93865;-68
2022/10/03 03:10:20;;;;;;;11.98;2.15;;;;;;;;;;4962760;28;94607;-67
2022/10/03 03:12:53;;;;;;;7.30;2.05;;;;;;;;;;4970775;28;92150;-67
2022/10/03 03:15:37;;;;;;;13.15;2.60;;;;;;;;;;4956380;28;93444;-68
2022/10/03 03:18:22;;;;;;;13.48;2.38;;;;;;;;;;4970139;28;92523;-67
2022/10/03 03:20:51;;;;;;;10.35;2.70;;;;;;;;;;4965477;28;94945;-68
2022/10/03 03:23:32;;;;;;;8.75;2.28;;;;;;;;;;4970319;28;95540;-68
2022/10/03 03:26:01;;;;;;;7.63;2.30;;;;;;;;;;4969593;28;93078;-69
2022/10/03 03:28:27;;;;;;;6.65;2.80;;;;;;;;;;4971506;28;93515;-67
2022/10/03 03:30:56;;;;;;;6.05;2.70;;;;;;;;;;4961642;28;94613;-67
2022/10/03 03:33:23;;;;;;;7.63;2.40;;;;;;;;;;4971105;28;92660;-68
2022/10/03 03:36:10;;;;;;;10.30;2.28;;;;;;;;;;4970124;28;93062;-67
2022/10/03 03:38:46;;;;;;;7.90;1.83;;;;;;;;;;4975701;28;92798;-68
2022/10/03 03:41:20;;;;;;;10.88;2.80;;;;;;;;;;4989867;28;92535;-68
2022/10/03 03:43:58;;;;;;;9.35;2.67;;;;;;;;;;4991915;28;93120;-67
2022/10/03 03:46:34;;;;;;;6.18;1.90;;;;;;;;;;4979465;28;95794;-68
2022/10/03 03:49:18;;;;;;;10.13;2.50;;;;;;;;;;4982123;28;92433;-67
2022/10/03 03:52:02;;;;;;;7.40;1.70;;;;;;;;;;4979355;28;93414;-67
2022/10/03 03:54:28;;;;;;;7.78;2.10;;;;;;;;;;4981571;28;92564;-67
2022/10/03 03:57:00;;;;;;;6.30;2.03;;;;;;;;;;4973471;28;93961;-67
2022/10/03 03:59:38;;;;;;;6.72;2.00;;;;;;;;;;4969294;28;93378;-67
2022/10/03 04:02:07;;;;;;;7.45;1.80;;;;;;;;;;4969034;28;92480;-69
2022/10/03 04:04:40;;;;;;;5.82;2.08;;;;;;;;;;4973365;28;96233;-67
2022/10/03 04:07:15;;;;;;;7.93;1.88;;;;;;;;;;4972530;28;93422;-67
2022/10/03 04:09:46;;;;;;;;;;;;;;;;;;4992314;28;92574;-67
2022/10/03 04:12:25;;;;;;;7.45;2.53;;;;;;;;;;4982106;28;126508;-67
2022/10/03 04:15:04;;;;;;;7.43;2.03;;;;;;;;;;4980619;28;92420;-67
2022/10/03 04:20:26;;;;;;;7.55;1.67;;;;;;;;;;4962898;28;92457;-68
2022/10/03 04:23:01;;;;;;;5.43;1.73;;;;;;;;;;4983076;28;92490;-68
2022/10/03 04:25:30;;;;;;;5.57;1.63;;;;;;;;;;4973139;28;93253;-67
2022/10/03 04:27:59;;;;;;;7.90;2.03;;;;;;;;;;4971470;28;93453;-68
2022/10/03 04:30:29;;;;;;;9.02;2.28;;;;;;;;;;4974029;28;91788;-67
2022/10/03 04:33:11;;;;;;;6.53;1.60;;;;;;;;;;4976968;28;92388;-67
2022/10/03 04:35:55;;;;;;;7.90;1.95;;;;;;;;;;4973287;28;92404;-67
2022/10/03 04:38:21;;;;;;;5.13;1.65;;;;;;;;;;4971581;28;96151;-67
2022/10/03 04:41:11;;;;;;;5.28;2.13;;;;;;;;;;4990165;28;93756;-67
2022/10/03 04:43:43;;;;;;;4.65;1.90;;;;;;;;;;4975864;28;92492;-68
2022/10/03 04:46:18;;;;;;;6.15;1.63;;;;;;;;;;4977077;28;94592;-68
2022/10/03 04:49:01;;;;;;;9.40;1.70;;;;;;;;;;4985052;28;93447;-67
2022/10/03 04:51:46;;;;;;;7.85;2.15;;;;;;;;;;4985898;28;93998;-68
2022/10/03 04:54:38;;;;;;;9.57;2.22;;;;;;;;;;4973495;28;94274;-68
2022/10/03 04:57:10;;;;;;;4.93;1.75;;;;;;;;;;4987165;28;92535;-68
2022/10/03 04:59:43;;;;;;;5.10;1.92;;;;;;;;;;4982778;28;93447;-68
2022/10/03 05:02:13;;;;;;;8.00;1.80;;;;;;;;;;4976677;28;93445;-68
2022/10/03 05:04:59;;;;;;;4.38;1.75;;;;;;;;;;4974311;28;96447;-68
2022/10/03 05:07:40;;;;;;;5.35;1.77;;;;;;;;;;4992273;28;95533;-69
2022/10/03 05:10:27;;;;;;;5.82;2.05;;;;;;;;;;4994736;28;93783;-68
2022/10/03 05:13:03;;;;;;;4.90;1.67;;;;;;;;;;4993014;28;92457;-68
2022/10/03 05:15:39;;;;;;;6.47;1.90;;;;;;;;;;4974257;28;95498;-68
2022/10/03 05:18:24;;;;;;;7.65;2.30;;;;;;;;;;4978167;28;94901;-68
2022/10/03 05:21:15;;;;;;;6.18;1.88;;;;;;;;;;4994808;28;92657;-66
2022/10/03 05:24:03;;;;;;;8.35;2.15;;;;;;;;;;4991262;28;92683;-67
2022/10/03 05:26:48;;;;;;;9.18;2.35;;;;;;;;;;4976302;28;92479;-67
2022/10/03 05:29:14;;;;;;;6.07;1.90;;;;;;;;;;4987369;28;93835;-68
2022/10/03 05:31:55;;;;;;;20.13;2.15;;;;;;;;;;4970562;28;97034;-67
2022/10/03 05:34:35;;;;;;;10.38;2.05;;;;;;;;;;4975571;28;92848;-67
2022/10/03 05:37:19;;;;;;;12.52;2.40;;;;;;;;;;4979704;28;94065;-67
2022/10/03 05:40:01;;;;;;;5.68;2.65;;;;;;;;;;4960783;28;93217;-67
2022/10/03 05:42:30;;;;;;;8.02;2.40;;;;;;;;;;4979147;28;93031;-67
2022/10/03 05:45:02;;;;;;;19.90;3.88;;;;;;;;;;4976438;28;93113;-68
2022/10/03 05:47:45;;;;;;;7.32;2.13;;;;;;;;;;4974646;28;92742;-66
2022/10/03 05:50:27;;;;;;;11.60;2.00;;;;;;;;;;4977802;28;93146;-68
2022/10/03 05:52:53;;;;;;;5.75;2.05;;;;;;;;;;4984002;28;93535;-68
2022/10/03 05:55:19;;;;;;;7.45;1.90;;;;;;;;;;4972185;28;92532;-66
2022/10/03 05:58:00;;;;;;;9.00;2.13;;;;;;;;;;4969245;28;94875;-67
2022/10/03 06:00:37;;;;;;;10.73;2.78;;;;;;;;;;4966504;28;94323;-66
2022/10/03 06:03:15;;;;;;;8.82;3.35;;;;;;;;;;4972825;28;92575;-67
2022/10/03 06:05:50;;;;;;;10.25;3.30;;;;;;;;;;4967901;28;94377;-67
2022/10/03 06:08:16;;;;;;;11.32;2.88;;;;;;;;;;4975037;28;92955;-66
2022/10/03 06:10:45;;;;;;;8.52;2.83;;;;;;;;;;4973117;28;93426;-67
2022/10/03 06:13:18;;;;;;;13.18;3.58;;;;;;;;;;4973215;28;93770;-68
2022/10/03 06:15:44;;;;;;;11.45;3.30;;;;;;;;;;4977373;28;92728;-68
2022/10/03 06:18:31;;;;;;;9.30;2.88;;;;;;;;;;4986991;28;92606;-68
2022/10/03 06:21:06;;;;;;;11.70;3.03;;;;;;;;;;4974486;28;93708;-68
2022/10/03 06:23:41;;;;;;;8.82;3.10;;;;;;;;;;4969372;28;94866;-67
2022/10/03 06:26:10;;;;;;;9.82;4.00;;;;;;;;;;4971611;28;95930;-66
2022/10/03 06:28:52;;;;;;;9.13;3.63;;;;;;;;;;4978697;28;93455;-66
2022/10/03 06:31:18;;;;;;;16.50;4.88;;;;;;;;;;4985330;28;93589;-67
2022/10/03 06:34:03;;;;;;;11.07;3.60;;;;;;;;;;4984502;28;93604;-66
2022/10/03 06:36:38;;;;;;;9.93;3.40;;;;;;;;;;4979466;28;93713;-66
2022/10/03 06:39:23;;;;;;;13.85;3.45;;;;;;;;;;4985165;28;94966;-67
2022/10/03 06:42:08;;;;;;;14.18;3.25;;;;;;;;;;4971759;28;93627;-71
2022/10/03 06:44:56;;;;;;;13.43;3.03;;;;;;;;;;4971522;28;92516;-71
2022/10/03 06:47:30;;;;;;;15.85;3.17;;;;;;;;;;4981986;28;95900;-67
2022/10/03 06:50:17;;;;;;;15.50;3.10;;;;;;;;;;4971801;28;97216;-68
2022/10/03 06:52:59;;;;;;;8.88;3.33;;;;;;;;;;4977731;28;92704;-68
2022/10/03 06:55:45;;;;;;;9.60;3.28;;;;;;;;;;4976107;28;93441;-67
2022/10/03 06:58:22;;;;;;;7.40;3.10;;;;;;;;;;4975856;28;92452;-67
2022/10/03 07:01:00;;;;;;;12.32;3.60;;;;;;;;;;4973705;28;93096;-67
2022/10/03 07:03:41;;;;;;;19.52;4.68;;;;;;;;;;4974216;28;93976;-68
2022/10/03 07:06:12;;;;;;;14.38;3.35;;;;;;;;;;4972902;28;92490;-67
2022/10/03 07:08:40;;;;;;;13.77;3.30;;;;;;;;;;4976511;28;94249;-67
2022/10/03 07:11:09;;;;;;;7.60;2.80;;;;;;;;;;4974219;28;93808;-67
2022/10/03 07:13:36;;;;;;;19.55;4.15;;;;;;;;;;4973699;28;92485;-67
2022/10/03 07:16:07;;;;;;;17.85;4.00;;;;;;;;;;4975773;28;94885;-67
2022/10/03 07:19:02;;;;;;;14.55;2.65;;;;;;;;;;4975556;28;92459;-67
2022/10/03 07:21:38;;;;;;;13.40;3.13;;;;;;;;;;4975479;28;94253;-67
2022/10/03 07:24:24;;;;;;;10.02;3.05;;;;;;;;;;4973375;28;93631;-67
2022/10/03 07:26:53;;;;;;;9.93;2.88;;;;;;;;;;4969323;28;92582;-68
2022/10/03 07:29:28;;;;;;;8.43;2.50;;;;;;;;;;4976003;28;95863;-66
2022/10/03 07:31:57;;;;;;;13.70;2.97;;;;;;;;;;4955452;28;93811;-68
2022/10/03 07:34:42;;;;;;;8.90;3.17;;;;;;;;;;4956547;28;91695;-67
2022/10/03 07:40:11;;;;;;;6.55;2.30;;;;;;;;;;4975665;28;93748;-67
2022/10/03 07:42:50;;;;;;;10.38;2.95;;;;;;;;;;4972767;28;94828;-69
2022/10/03 07:45:35;;;;;;;12.32;2.45;;;;;;;;;;4974534;28;93986;-67
2022/10/03 07:48:12;;;;;;;13.38;3.30;;;;;;;;;;4972411;28;92513;-67
2022/10/03 07:51:02;;;;;;;15.35;3.88;;;;;;;;;;4972319;28;93900;-66
2022/10/03 07:53:31;;;;;;;15.73;3.85;;;;;;;;;;4975376;28;94737;-70
2022/10/03 07:56:07;;;;;;;21.90;3.88;;;;;;;;;;4988351;28;92499;-69
2022/10/03 07:58:36;;;;;;;12.73;2.92;;;;;;;;;;4973508;28;93572;-66
2022/10/03 08:01:02;;;;;;;14.43;2.63;;;;;;;;;;4974560;28;92816;-67
2022/10/03 08:03:44;;;;;;;16.13;2.95;;;;;;;;;;4977993;28;92386;-68
2022/10/03 08:06:23;;;;;;;12.48;3.13;;;;;;;;;;4983331;28;94443;-67
2022/10/03 08:08:57;;;;;;;13.25;3.50;;;;;;;;;;4975628;28;96572;-67
2022/10/03 08:11:24;;;;;;;10.27;3.08;;;;;;;;;;4975450;28;95525;-69
2022/10/03 08:14:03;;;;;;;14.40;3.22;;;;;;;;;;4994193;28;94386;-69
2022/10/03 08:16:50;;;;;;;13.90;3.40;;;;;;;;;;4978747;28;92461;-68
2022/10/03 08:19:23;;;;;;;15.35;2.72;;;;;;;;;;4972453;28;94898;-66
2022/10/03 08:21:57;;;;;;;11.48;3.20;;;;;;;;;;4975465;28;93415;-66
2022/10/03 08:24:41;;;;;;;10.95;2.67;;;;;;;;;;4981640;28;92377;-66
2022/10/03 08:27:19;;;;;;;12.60;2.75;;;;;;;;;;4977039;28;92568;-66
2022/10/03 08:30:01;;;;;;;12.00;2.70;;;;;;;;;;4965895;28;92508;-67
2022/10/03 08:32:46;;;;;;;16.73;3.05;;;;;;;;;;4978122;28;92401;-66
2022/10/03 08:35:17;;;;;;;14.60;3.10;;;;;;;;;;4976629;28;96908;-65
2022/10/03 08:37:55;;;;;;;6.53;1.77;;;;;;;;;;4977113;28;94113;-65
2022/10/03 08:40:33;;;;;;;15.18;2.60;;;;;;;;;;4969766;28;92494;-65
2022/10/03 08:43:12;;;;;;;11.00;2.50;;;;;;;;;;4977686;28;93281;-65
2022/10/03 08:45:44;;;;;;;12.82;2.70;;;;;;;;;;4977285;28;93106;-66
2022/10/03 08:48:29;;;;;;;34.05;3.92;;;;;;;;;;4984119;28;94239;-65
2022/10/03 08:51:24;;;;;;;20.50;3.53;;;;;;;;;;4979159;28;92510;-65
2022/10/03 08:54:11;;;;;;;20.27;2.95;;;;;;;;;;4977352;28;93242;-66
2022/10/03 08:56:55;;;;;;;12.27;2.65;;;;;;;;;;4981097;28;93463;-66
2022/10/03 08:59:22;;;;;;;9.13;2.28;;;;;;;;;;4983383;28;92501;-67
2022/10/03 09:02:05;;;;;;;15.40;3.15;;;;;;;;;;4975456;28;95037;-66
2022/10/03 09:04:38;;;;;;;17.15;3.15;;;;;;;;;;4977429;28;93520;-66
2022/10/03 09:07:07;;;;;;;7.88;2.95;;;;;;;;;;4981148;28;93719;-65
2022/10/03 09:09:49;;;;;;;16.50;2.70;;;;;;;;;;4977382;28;92976;-65
2022/10/03 09:12:34;;;;;;;12.73;2.90;;;;;;;;;;4979977;28;93793;-64
2022/10/03 09:15:19;;;;;;;7.80;2.08;;;;;;;;;;4976310;28;93147;-65
2022/10/03 09:18:04;;;;;;;12.77;2.42;;;;;;;;;;4975962;28;93492;-65
2022/10/03 09:20:49;;;;;;;10.55;2.25;;;;;;;;;;4977884;28;91725;-64
2022/10/03 09:23:27;;;;;;;14.02;2.60;;;;;;;;;;4979049;28;92789;-65
2022/10/03 09:25:54;;;;;;;17.35;2.67;;;;;;;;;;4975712;28;92488;-65
2022/10/03 09:28:26;;;;;;;20.67;2.55;;;;;;;;;;4974403;28;94844;-66
2022/10/03 09:31:02;;;;;;;14.15;2.47;;;;;;;;;;4977426;28;97149;-66
2022/10/03 09:33:46;;;;;;;12.52;2.45;;;;;;;;;;4975191;28;93437;-65
2022/10/03 09:36:38;;;;;;;13.93;2.70;;;;;;;;;;4979367;28;92429;-65
2022/10/03 09:39:23;;;;;;;12.05;2.38;;;;;;;;;;4976559;28;94384;-65
2022/10/03 09:42:01;;;;;;;15.02;2.72;;;;;;;;;;4986216;28;92439;-65
2022/10/03 09:44:37;;;;;;;15.05;2.63;;;;;;;;;;4977166;28;94317;-65
2022/10/03 09:47:21;;;;;;;12.98;2.05;;;;;;;;;;4976730;28;92690;-65
2022/10/03 09:49:50;;;;;;;9.85;1.77;;;;;;;;;;4975964;28;92645;-66
2022/10/03 09:52:21;;;;;;;13.93;2.42;;;;;;;;;;4976008;28;93265;-66
2022/10/03 09:54:50;;;;;;;9.43;2.33;;;;;;;;;;4974561;28;99977;-66
2022/10/03 09:57:42;;;;;;;15.38;2.30;;;;;;;;;;4976790;28;92467;-66
2022/10/03 10:00:27;;;;;;;9.13;1.80;;;;;;;;;;4977390;28;93310;-67
2022/10/03 10:03:01;;;;;;;10.30;2.08;;;;;;;;;;4968735;28;92453;-65
2022/10/03 10:05:46;;;;;;;12.23;2.20;;;;;;;;;;4975512;28;93132;-66
2022/10/03 10:08:31;;;;;;;10.63;2.15;;;;;;;;;;4975124;28;93916;-65
2022/10/03 10:11:03;;;;;;;19.50;2.85;;;;;;;;;;4976151;28;92506;-65
2022/10/03 10:13:29;;;;;;;11.63;1.77;;;;;;;;;;4976081;28;94330;-65
2022/10/03 10:16:27;;;;;;;8.45;2.05;;;;;;;;;;4976527;28;93420;-65
2022/10/03 10:18:53;;;;;;;10.05;1.77;;;;;;;;;;4974879;28;92461;-65
2022/10/03 10:21:30;;;;;;;121.22;8.80;;;;;;;;;;4962672;28;94820;-65
2022/10/03 10:26:34;;;;;;;9.15;2.20;;;;;;;;;;5038686;28;86360;-64
2022/10/03 10:29:14;;;;;;;11.73;1.88;;;;;;;;;;5033375;28;88146;-64
2022/10/03 10:32:13;;;;;;;8.30;1.88;;;;;;;;;;5033034;27;88291;-64
2022/10/03 10:35:00;;;;;;;9.65;2.10;;;;;;;;;;5030255;28;87871;-66
2022/10/03 10:37:28;;;;;;;7.80;1.92;;;;;;;;;;5015444;28;86810;-64
2022/10/03 10:40:07;;;;;;;8.68;2.08;;;;;;;;;;5015227;27;86868;-63
2022/10/03 10:42:52;;;;;;;7.32;1.60;;;;;;;;;;5015627;28;88787;-64
2022/10/03 10:45:24;;;;;;;10.38;1.88;;;;;;;;;;5016433;27;87007;-64
2022/10/03 10:47:57;;;;;;;7.97;1.75;;;;;;;;;;5017941;28;87231;-63
2022/10/03 10:50:26;;;;;;;11.38;1.23;;;;;;;;;;5032296;27;89053;-64
2022/10/03 10:53:11;;;;;;;15.10;2.35;;;;;;;;;;5015355;28;88294;-64
2022/10/03 10:55:38;;;;;;;10.52;2.08;;;;;;;;;;5015303;28;87506;-63
2022/10/03 10:58:29;;;;;;;8.27;1.73;;;;;;;;;;5029358;28;89015;-63
2022/10/03 11:01:04;;;;;;;10.48;3.03;;;;;;;;;;5033960;28;88477;-63
2022/10/03 11:03:53;;;;;;;9.55;2.50;;;;;;;;;;5034767;27;87738;-64
2022/10/03 11:06:22;;;;;;;15.45;2.85;;;;;;;;;;5033598;27;87811;-66
2022/10/03 11:08:54;;;;;;;9.35;2.25;;;;;;;;;;5030280;28;87327;-66
2022/10/03 11:11:40;;;;;;;13.30;2.13;;;;;;;;;;5018188;28;88717;-67
2022/10/03 11:14:29;;;;;;;10.27;2.45;;;;;;;;;;5014467;28;87268;-66
2022/10/03 11:17:14;;;;;;;14.20;2.30;;;;;;;;;;5021309;27;87525;-66
2022/10/03 11:19:59;;;;;;;11.43;2.13;;;;;;;;;;5028461;27;89058;-66
2022/10/03 11:22:43;;;;;;;13.68;2.60;;;;;;;;;;5030362;28;87431;-67
2022/10/03 11:25:11;;;;;;;9.20;2.05;;;;;;;;;;5034292;27;86792;-68
2022/10/03 11:27:53;;;;;;;12.45;2.15;;;;;;;;;;5034958;28;89027;-66
2022/10/03 11:30:40;;;;;;;9.93;2.15;;;;;;;;;;5020403;28;88484;-67
2022/10/03 11:33:15;;;;;;;10.00;1.85;;;;;;;;;;5015594;28;88213;-66
2022/10/03 11:36:00;;;;;;;12.77;2.08;;;;;;;;;;5025666;28;88125;-66
2022/10/03 11:38:29;;;;;;;10.48;2.53;;;;;;;;;;5001337;28;89121;-67
2022/10/03 11:41:01;;;;;;;7.95;1.90;;;;;;;;;;5002229;28;87849;-67
2022/10/03 11:43:46;;;;;;;23.58;2.22;;;;;;;;;;5000930;28;88343;-67
2022/10/03 11:46:13;;;;;;;10.30;2.00;;;;;;;;;;5011724;28;87474;-70
2022/10/03 11:48:40;;;;;;;14.27;2.33;;;;;;;;;;5020877;28;89116;-68
2022/10/03 11:51:09;;;;;;;10.23;2.53;;;;;;;;;;5005065;28;87346;-67
2022/10/03 11:53:49;;;;;;;12.45;2.10;;;;;;;;;;5000205;28;87520;-67
2022/10/03 11:56:34;;;;;;;9.80;2.10;;;;;;;;;;4999791;28;87671;-66
2022/10/03 11:59:09;;;;;;;8.20;1.95;;;;;;;;;;5004192;28;87301;-68
2022/10/03 12:01:36;;;;;;;8.50;1.70;;;;;;;;;;5016655;28;88231;-68
2022/10/03 12:04:08;;;;;;;11.98;2.00;;;;;;;;;;5012957;28;86824;-68
2022/10/03 12:09:31;;;;;;;9.88;2.55;;;;;;;;;;5013179;28;88941;-69
2022/10/03 12:12:15;;;;;;;10.30;2.17;;;;;;;;;;5016116;28;86979;-70
2022/10/03 12:14:45;;;;;;;8.10;2.33;;;;;;;;;;5015402;27;87450;-68
2022/10/03 12:17:18;;;;;;;9.88;1.88;;;;;;;;;;5002585;28;90681;-68
2022/10/03 12:20:04;;;;;;;12.45;2.15;;;;;;;;;;5004000;28;86870;-69
2022/10/03 12:22:30;;;;;;;25.63;2.58;;;;;;;;;;5015039;28;90622;-67
2022/10/03 12:25:01;;;;;;;8.88;1.63;;;;;;;;;;4999359;28;87335;-67
2022/10/03 12:27:42;;;;;;;11.15;2.38;;;;;;;;;;4999923;28;87589;-67
2022/10/03 12:30:16;;;;;;;10.63;2.15;;;;;;;;;;5002933;28;88470;-67
2022/10/03 12:33:03;;;;;;;11.27;2.20;;;;;;;;;;5010682;28;88662;-67
2022/10/03 12:35:49;;;;;;;11.32;2.05;;;;;;;;;;5001987;28;89390;-68
2022/10/03 12:38:21;;;;;;;12.23;2.53;;;;;;;;;;5008935;28;87528;-67
2022/10/03 12:40:53;;;;;;;8.68;1.88;;;;;;;;;;5004534;28;88416;-66
2022/10/03 12:43:34;;;;;;;9.23;2.47;;;;;;;;;;4998628;28;88418;-66
2022/10/03 12:46:02;;;;;;;12.50;1.80;;;;;;;;;;5003210;28;86834;-65
2022/10/03 12:48:32;;;;;;;9.40;1.83;;;;;;;;;;5018452;28;88652;-65
2022/10/03 12:51:00;;;;;;;13.95;2.53;;;;;;;;;;5008381;28;87963;-65
2022/10/03 12:53:30;;;;;;;6.90;1.88;;;;;;;;;;4999168;28;87160;-65
2022/10/03 12:55:56;;;;;;;9.40;1.90;;;;;;;;;;4999333;28;86850;-66
2022/10/03 12:58:40;;;;;;;14.88;2.25;;;;;;;;;;4999779;28;87965;-64
2022/10/03 13:01:09;;;;;;;8.45;2.05;;;;;;;;;;5001000;28;87689;-65
2022/10/03 13:03:54;;;;;;;10.48;2.15;;;;;;;;;;5011468;28;89119;-65
2022/10/03 13:06:39;;;;;;;16.08;2.67;;;;;;;;;;5022310;28;88842;-65
2022/10/03 13:09:44;;;;;;;12.23;2.65;;;;;;;;;;4999332;28;88928;-65
2022/10/03 13:12:19;;;;;;;10.65;2.22;;;;;;;;;;4998717;28;88996;-66
2022/10/03 13:15:11;;;;;;;10.13;1.77;;;;;;;;;;5005469;28;88201;-64
2022/10/03 13:17:48;;;;;;;12.73;2.30;;;;;;;;;;5031206;27;87524;-66
2022/10/03 13:20:18;;;;;;;15.65;2.55;;;;;;;;;;5005320;28;88688;-64
2022/10/03 13:22:45;;;;;;;12.48;3.05;;;;;;;;;;5019026;28;87349;-65
2022/10/03 13:25:17;;;;;;;15.68;2.95;;;;;;;;;;5018624;28;88539;-63
2022/10/03 13:27:50;;;;;;;10.80;2.83;;;;;;;;;;5019352;28;88255;-64
2022/10/03 13:30:25;;;;;;;8.52;2.30;;;;;;;;;;5003716;28;87519;-64
2022/10/03 13:32:58;;;;;;;13.65;2.70;;;;;;;;;;5013859;28;88900;-63
2022/10/03 13:38:22;;;;;;;9.20;2.33;;;;;;;;;;5017541;28;88434;-64
2022/10/03 13:40:48;;;;;;;7.43;2.13;;;;;;;;;;5010556;28;87840;-63
2022/10/03 13:43:18;;;;;;;13.30;3.10;;;;;;;;;;4998839;28;87166;-63
2022/10/03 13:45:47;;;;;;;14.47;2.73;;;;;;;;;;5005976;28;88519;-64
2022/10/03 13:48:17;;;;;;;16.53;2.80;;;;;;;;;;5007953;28;88881;-64
2022/10/03 13:50:55;;;;;;;14.30;2.60;;;;;;;;;;4999082;28;87353;-63
2022/10/03 13:53:40;;;;;;;8.82;2.03;;;;;;;;;;5000912;28;86875;-63
2022/10/03 13:56:24;;;;;;;14.50;2.55;;;;;;;;;;4997572;28;88630;-63
2022/10/03 13:58:55;;;;;;;14.27;2.75;;;;;;;;;;4997685;28;86757;-63
2022/10/03 14:01:24;;;;;;;7.22;1.48;;;;;;;;;;4998113;28;87866;-63
2022/10/03 14:03:50;;;;;;;16.92;2.38;;;;;;;;;;4997402;28;88170;-63
2022/10/03 14:06:23;;;;;;;15.02;2.95;;;;;;;;;;5000287;28;88772;-62
2022/10/03 14:09:10;;;;;;;13.23;2.20;;;;;;;;;;5018475;28;87802;-63
2022/10/03 14:11:43;;;;;;;15.27;2.15;;;;;;;;;;5018512;28;88386;-63
2022/10/03 14:14:12;;;;;;;16.40;2.17;;;;;;;;;;5002052;28;87695;-63
2022/10/03 14:16:42;;;;;;;10.95;2.42;;;;;;;;;;5018507;28;89410;-63
2022/10/03 14:19:21;;;;;;;15.82;2.33;;;;;;;;;;5018677;28;88928;-63
2022/10/03 14:21:47;;;;;;;9.02;2.55;;;;;;;;;;5015262;28;88902;-63
2022/10/03 14:24:32;;;;;;;14.02;2.70;;;;;;;;;;5011746;28;87299;-63
2022/10/03 14:27:10;;;;;;;11.02;2.42;;;;;;;;;;4997504;28;87378;-63
2022/10/03 14:29:39;;;;;;;11.13;2.40;;;;;;;;;;5004139;28;89298;-63
2022/10/03 14:32:11;;;;;;;21.17;3.10;;;;;;;;;;5006357;28;86919;-64
2022/10/03 14:35:16;;;;;;;13.50;2.40;;;;;;;;;;4999929;28;87613;-62
2022/10/03 14:37:42;;;;;;;9.13;1.73;;;;;;;;;;4998317;28;88704;-63
2022/10/03 14:40:27;;;;;;;9.13;1.75;;;;;;;;;;5002508;28;87292;-64
2022/10/03 14:42:57;;;;;;;12.32;2.63;;;;;;;;;;4998005;28;88085;-63
2022/10/03 14:45:25;;;;;;;;;;;;;;;;;;5000945;28;88793;-63
2022/10/03 14:50:04;;;;;;;12.55;3.05;;;;;;;;;;5037287;28;87228;-64
2022/10/03 14:52:35;;;;;;;13.65;2.30;;;;;;;;;;5033426;28;87920;-65
2022/10/03 14:55:07;;;;;;;10.38;2.35;;;;;;;;;;5033459;28;87243;-63
2022/10/03 14:57:35;;;;;;;21.10;2.85;;;;;;;;;;5035275;28;87247;-62
2022/10/03 15:00:23;;;;;;;11.93;3.15;;;;;;;;;;5030504;28;87778;-63
2022/10/03 15:02:50;;;;;;;10.77;2.88;;;;;;;;;;5029665;28;87395;-62
2022/10/03 15:05:22;;;;;;;17.80;3.20;;;;;;;;;;5035093;28;87375;-61
2022/10/03 15:07:48;;;;;;;15.48;2.90;;;;;;;;;;5021313;28;88924;-64
2022/10/03 15:10:17;;;;;;;14.73;2.60;;;;;;;;;;5019325;28;88317;-62
2022/10/03 15:12:47;;;;;;;15.07;2.70;;;;;;;;;;5034022;28;88949;-61
2022/10/03 15:15:34;;;;;;;17.52;2.40;;;;;;;;;;5018243;28;87321;-62
2022/10/03 15:18:03;;;;;;;10.90;2.20;;;;;;;;;;5014924;28;87480;-65
2022/10/03 15:20:35;;;;;;;11.73;2.08;;;;;;;;;;5015503;28;86935;-65
2022/10/03 15:23:06;;;;;;;14.35;3.25;;;;;;;;;;5013314;28;88638;-62
2022/10/03 15:25:37;;;;;;;12.90;2.60;;;;;;;;;;5032501;27;87627;-63
2022/10/03 15:28:05;;;;;;;15.77;3.15;;;;;;;;;;5021914;27;87806;-64
2022/10/03 15:30:35;;;;;;;19.90;2.50;;;;;;;;;;5014376;28;88534;-61
2022/10/03 15:33:20;;;;;;;15.75;2.85;;;;;;;;;;5015887;28;88415;-62
2022/10/03 15:35:49;;;;;;;16.83;2.83;;;;;;;;;;5009995;28;87457;-62
2022/10/03 15:38:20;;;;;;;17.05;2.90;;;;;;;;;;5013951;28;88758;-62
2022/10/03 15:40:50;;;;;;;7.65;2.13;;;;;;;;;;5014110;28;88176;-66
2022/10/03 15:43:16;;;;;;;11.25;2.08;;;;;;;;;;5014625;28;87238;-64
2022/10/03 15:45:42;;;;;;;14.65;3.47;;;;;;;;;;5014319;28;87381;-63
2022/10/03 15:48:12;;;;;;;11.57;2.30;;;;;;;;;;5014088;28;88045;-63
2022/10/03 15:50:40;;;;;;;17.08;2.55;;;;;;;;;;5034736;27;87306;-64